sensor_id;sensor_type;location;lat;lon;timestamp;temperature;humidity
49218;DHT22;35045;51.194;7.268;2023-11-21T00:01:58;8.10;99.90
49218;DHT22;35045;51.194;7.268;2023-11-21T00:04:24;8.10;99.90
49218;DHT22;35045;51.194;7.268;2023-11-21T00:06:51;8.10;99.90
49218;DHT22;35045;51.194;7.268;2023-11-21T00:09:17;8.10;99.90
49218;DHT22;35045;51.194;7.268;2023-11-21T00:11:46;8.00;99.90
49218;DHT22;35045;51.194;7.268;2023-11-21T00:14:12;8.00;99.90
49218;DHT22;35045;51.194;7.268;2023-11-21T00:16:38;8.00;99.90
49218;DHT22;35045;51.194;7.268;2023-11-21T00:19:05;8.00;99.90
49218;DHT22;35045;51.194;7.268;2023-11-21T00:21:32;8.00;99.90
49218;DHT22;35045;51.194;7.268;2023-11-21T00:23:58;7.90;99.90
49218;DHT22;35045;51.194;7.268;2023-11-21T00:26:24;7.90;99.90
49218;DHT22;35045;51.194;7.268;2023-11-21T00:28:50;7.90;99.90
49218;DHT22;35045;51.194;7.268;2023-11-21T00:31:17;7.90;99.90
49218;DHT22;35045;51.194;7.268;2023-11-21T00:33:43;7.90;99.90
49218;DHT22;35045;51.194;7.268;2023-11-21T00:36:09;7.90;99.90
49218;DHT22;35045;51.194;7.268;2023-11-21T00:38:36;7.90;99.90
49218;DHT22;35045;51.194;7.268;2023-11-21T00:41:04;7.80;99.90
49218;DHT22;35045;51.194;7.268;2023-11-21T00:43:30;7.80;99.90
49218;DHT22;35045;51.194;7.268;2023-11-21T00:45:56;7.80;99.90
49218;DHT22;35045;51.194;7.268;2023-11-21T00:48:22;7.70;99.90
49218;DHT22;35045;51.194;7.268;2023-11-21T00:50:49;7.70;99.90
49218;DHT22;35045;51.194;7.268;2023-11-21T00:53:16;7.70;99.90
49218;DHT22;35045;51.194;7.268;2023-11-21T00:55:43;7.70;99.90
49218;DHT22;35045;51.194;7.268;2023-11-21T00:58:09;7.70;99.90
49218;DHT22;35045;51.194;7.268;2023-11-21T01:00:36;7.70;99.90
49218;DHT22;35045;51.194;7.268;2023-11-21T01:03:05;7.70;99.90
49218;DHT22;35045;51.194;7.268;2023-11-21T01:05:34;7.70;99.90
49218;DHT22;35045;51.194;7.268;2023-11-21T01:08:00;7.80;99.90
49218;DHT22;35045;51.194;7.268;2023-11-21T01:10:26;7.90;99.90
49218;DHT22;35045;51.194;7.268;2023-11-21T01:12:53;7.90;99.90
49218;DHT22;35045;51.194;7.268;2023-11-21T01:15:19;7.90;99.90
49218;DHT22;35045;51.194;7.268;2023-11-21T01:17:45;7.90;99.90
49218;DHT22;35045;51.194;7.268;2023-11-21T01:20:11;7.90;99.90
49218;DHT22;35045;51.194;7.268;2023-11-21T01:22:39;7.90;99.90
49218;DHT22;35045;51.194;7.268;2023-11-21T01:25:06;8.00;99.90
49218;DHT22;35045;51.194;7.268;2023-11-21T01:27:34;8.00;99.90
49218;DHT22;35045;51.194;7.268;2023-11-21T01:30:02;8.00;99.90
49218;DHT22;35045;51.194;7.268;2023-11-21T01:32:28;8.00;99.90
49218;DHT22;35045;51.194;7.268;2023-11-21T01:34:55;7.90;99.90
49218;DHT22;35045;51.194;7.268;2023-11-21T01:37:21;7.90;99.90
49218;DHT22;35045;51.194;7.268;2023-11-21T01:39:48;7.90;99.90
49218;DHT22;35045;51.194;7.268;2023-11-21T01:42:14;7.90;99.90
49218;DHT22;35045;51.194;7.268;2023-11-21T01:44:40;8.00;99.90
49218;DHT22;35045;51.194;7.268;2023-11-21T01:47:08;8.00;99.90
49218;DHT22;35045;51.194;7.268;2023-11-21T01:49:35;8.00;99.90
49218;DHT22;35045;51.194;7.268;2023-11-21T01:52:02;8.10;99.90
49218;DHT22;35045;51.194;7.268;2023-11-21T01:54:30;8.10;99.90
49218;DHT22;35045;51.194;7.268;2023-11-21T01:56:59;8.10;99.90
49218;DHT22;35045;51.194;7.268;2023-11-21T01:59:37;8.10;99.90
49218;DHT22;35045;51.194;7.268;2023-11-21T02:02:05;8.10;99.90
49218;DHT22;35045;51.194;7.268;2023-11-21T02:04:32;8.20;99.90
49218;DHT22;35045;51.194;7.268;2023-11-21T02:06:59;8.20;99.90
49218;DHT22;35045;51.194;7.268;2023-11-21T02:09:27;8.20;99.90
49218;DHT22;35045;51.194;7.268;2023-11-21T02:11:53;8.20;99.90
49218;DHT22;35045;51.194;7.268;2023-11-21T02:14:22;8.20;99.90
49218;DHT22;35045;51.194;7.268;2023-11-21T02:16:50;8.20;99.90
49218;DHT22;35045;51.194;7.268;2023-11-21T02:19:18;8.20;99.90
49218;DHT22;35045;51.194;7.268;2023-11-21T02:21:59;8.20;99.90
49218;DHT22;35045;51.194;7.268;2023-11-21T02:24:29;8.20;99.90
49218;DHT22;35045;51.194;7.268;2023-11-21T02:26:55;8.10;99.90
49218;DHT22;35045;51.194;7.268;2023-11-21T02:29:22;8.10;99.90
49218;DHT22;35045;51.194;7.268;2023-11-21T02:31:54;8.10;99.90
49218;DHT22;35045;51.194;7.268;2023-11-21T02:34:22;8.10;99.90
49218;DHT22;35045;51.194;7.268;2023-11-21T02:36:48;8.10;99.90
49218;DHT22;35045;51.194;7.268;2023-11-21T02:39:18;8.10;99.90
49218;DHT22;35045;51.194;7.268;2023-11-21T02:41:44;8.20;99.90
49218;DHT22;35045;51.194;7.268;2023-11-21T02:44:10;8.20;99.90
49218;DHT22;35045;51.194;7.268;2023-11-21T02:46:37;8.10;99.90
49218;DHT22;35045;51.194;7.268;2023-11-21T02:49:03;8.10;99.90
49218;DHT22;35045;51.194;7.268;2023-11-21T02:51:32;8.10;99.90
49218;DHT22;35045;51.194;7.268;2023-11-21T02:53:59;8.10;99.90
49218;DHT22;35045;51.194;7.268;2023-11-21T02:56:29;8.10;99.90
49218;DHT22;35045;51.194;7.268;2023-11-21T02:58:56;8.10;99.90
49218;DHT22;35045;51.194;7.268;2023-11-21T03:01:23;8.10;99.90
49218;DHT22;35045;51.194;7.268;2023-11-21T03:03:52;8.20;99.90
49218;DHT22;35045;51.194;7.268;2023-11-21T03:06:19;8.30;99.90
49218;DHT22;35045;51.194;7.268;2023-11-21T03:08:46;8.30;99.90
49218;DHT22;35045;51.194;7.268;2023-11-21T03:11:13;8.30;99.90
49218;DHT22;35045;51.194;7.268;2023-11-21T03:13:40;8.30;99.90
49218;DHT22;35045;51.194;7.268;2023-11-21T03:16:10;8.30;99.90
49218;DHT22;35045;51.194;7.268;2023-11-21T03:18:37;8.30;99.90
49218;DHT22;35045;51.194;7.268;2023-11-21T03:21:04;8.30;99.90
49218;DHT22;35045;51.194;7.268;2023-11-21T03:23:31;8.30;99.90
49218;DHT22;35045;51.194;7.268;2023-11-21T03:25:57;8.30;99.90
49218;DHT22;35045;51.194;7.268;2023-11-21T03:28:26;8.20;99.90
49218;DHT22;35045;51.194;7.268;2023-11-21T03:30:53;8.10;99.90
49218;DHT22;35045;51.194;7.268;2023-11-21T03:33:20;8.10;99.90
49218;DHT22;35045;51.194;7.268;2023-11-21T03:35:46;8.10;99.90
49218;DHT22;35045;51.194;7.268;2023-11-21T03:38:12;8.00;99.90
49218;DHT22;35045;51.194;7.268;2023-11-21T03:40:39;8.00;99.90
49218;DHT22;35045;51.194;7.268;2023-11-21T03:43:06;8.00;99.90
49218;DHT22;35045;51.194;7.268;2023-11-21T03:45:32;7.90;99.90
49218;DHT22;35045;51.194;7.268;2023-11-21T03:47:59;8.00;99.90
49218;DHT22;35045;51.194;7.268;2023-11-21T03:50:30;8.00;99.90
49218;DHT22;35045;51.194;7.268;2023-11-21T03:52:57;8.00;99.90
49218;DHT22;35045;51.194;7.268;2023-11-21T03:55:23;8.00;99.90
49218;DHT22;35045;51.194;7.268;2023-11-21T03:57:51;8.10;99.90
49218;DHT22;35045;51.194;7.268;2023-11-21T04:00:18;8.10;99.90
49218;DHT22;35045;51.194;7.268;2023-11-21T04:02:46;8.20;99.90
49218;DHT22;35045;51.194;7.268;2023-11-21T04:05:12;8.20;99.90
49218;DHT22;35045;51.194;7.268;2023-11-21T04:07:38;8.20;99.90
49218;DHT22;35045;51.194;7.268;2023-11-21T04:10:06;8.20;99.90
49218;DHT22;35045;51.194;7.268;2023-11-21T04:12:35;8.20;99.90
49218;DHT22;35045;51.194;7.268;2023-11-21T04:15:02;8.30;99.90
49218;DHT22;35045;51.194;7.268;2023-11-21T04:17:28;8.30;99.90
49218;DHT22;35045;51.194;7.268;2023-11-21T04:19:55;8.30;99.90
49218;DHT22;35045;51.194;7.268;2023-11-21T04:22:21;8.30;99.90
49218;DHT22;35045;51.194;7.268;2023-11-21T04:24:47;8.30;99.90
49218;DHT22;35045;51.194;7.268;2023-11-21T04:27:15;8.40;99.90
49218;DHT22;35045;51.194;7.268;2023-11-21T04:29:44;8.40;99.90
49218;DHT22;35045;51.194;7.268;2023-11-21T04:32:10;8.30;99.90
49218;DHT22;35045;51.194;7.268;2023-11-21T04:34:36;8.30;99.90
49218;DHT22;35045;51.194;7.268;2023-11-21T04:37:03;8.30;99.90
49218;DHT22;35045;51.194;7.268;2023-11-21T04:39:32;8.20;99.90
49218;DHT22;35045;51.194;7.268;2023-11-21T04:41:58;8.30;99.90
49218;DHT22;35045;51.194;7.268;2023-11-21T04:44:24;8.30;99.90
49218;DHT22;35045;51.194;7.268;2023-11-21T04:46:50;8.30;99.90
49218;DHT22;35045;51.194;7.268;2023-11-21T04:49:17;8.30;99.90
49218;DHT22;35045;51.194;7.268;2023-11-21T04:51:43;8.30;99.90
49218;DHT22;35045;51.194;7.268;2023-11-21T04:54:09;8.30;99.90
49218;DHT22;35045;51.194;7.268;2023-11-21T04:56:36;8.30;99.90
49218;DHT22;35045;51.194;7.268;2023-11-21T04:59:02;8.30;99.90
49218;DHT22;35045;51.194;7.268;2023-11-21T05:01:28;8.40;99.90
49218;DHT22;35045;51.194;7.268;2023-11-21T05:03:55;8.40;99.90
49218;DHT22;35045;51.194;7.268;2023-11-21T05:06:23;8.40;99.90
49218;DHT22;35045;51.194;7.268;2023-11-21T05:08:49;8.40;99.90
49218;DHT22;35045;51.194;7.268;2023-11-21T05:11:26;8.40;99.90
49218;DHT22;35045;51.194;7.268;2023-11-21T05:13:52;8.40;99.90
49218;DHT22;35045;51.194;7.268;2023-11-21T05:16:21;8.40;99.90
49218;DHT22;35045;51.194;7.268;2023-11-21T05:18:48;8.40;99.90
49218;DHT22;35045;51.194;7.268;2023-11-21T05:21:16;8.50;99.90
49218;DHT22;35045;51.194;7.268;2023-11-21T05:23:42;8.50;99.90
49218;DHT22;35045;51.194;7.268;2023-11-21T05:26:08;8.50;99.90
49218;DHT22;35045;51.194;7.268;2023-11-21T05:28:35;8.50;99.90
49218;DHT22;35045;51.194;7.268;2023-11-21T05:31:01;8.50;99.90
49218;DHT22;35045;51.194;7.268;2023-11-21T05:33:28;8.50;99.90
49218;DHT22;35045;51.194;7.268;2023-11-21T05:35:56;8.50;99.90
49218;DHT22;35045;51.194;7.268;2023-11-21T05:38:22;8.40;99.90
49218;DHT22;35045;51.194;7.268;2023-11-21T05:40:48;8.40;99.90
49218;DHT22;35045;51.194;7.268;2023-11-21T05:43:14;8.40;99.90
49218;DHT22;35045;51.194;7.268;2023-11-21T05:45:41;8.40;99.90
49218;DHT22;35045;51.194;7.268;2023-11-21T05:48:07;8.40;99.90
49218;DHT22;35045;51.194;7.268;2023-11-21T05:50:33;8.30;99.90
49218;DHT22;35045;51.194;7.268;2023-11-21T05:53:00;8.20;99.90
49218;DHT22;35045;51.194;7.268;2023-11-21T05:55:26;8.20;99.90
49218;DHT22;35045;51.194;7.268;2023-11-21T05:57:52;8.20;99.90
49218;DHT22;35045;51.194;7.268;2023-11-21T06:00:20;8.20;99.90
49218;DHT22;35045;51.194;7.268;2023-11-21T06:02:48;8.10;99.90
49218;DHT22;35045;51.194;7.268;2023-11-21T06:05:18;8.20;99.90
49218;DHT22;35045;51.194;7.268;2023-11-21T06:07:45;8.20;99.90
49218;DHT22;35045;51.194;7.268;2023-11-21T06:10:11;8.20;99.90
49218;DHT22;35045;51.194;7.268;2023-11-21T06:12:40;8.10;99.90
49218;DHT22;35045;51.194;7.268;2023-11-21T06:15:09;8.10;99.90
49218;DHT22;35045;51.194;7.268;2023-11-21T06:17:39;8.20;99.90
49218;DHT22;35045;51.194;7.268;2023-11-21T06:20:07;8.20;99.90
49218;DHT22;35045;51.194;7.268;2023-11-21T06:22:41;8.20;99.90
49218;DHT22;35045;51.194;7.268;2023-11-21T06:25:08;8.20;99.90
49218;DHT22;35045;51.194;7.268;2023-11-21T06:27:38;8.20;99.90
49218;DHT22;35045;51.194;7.268;2023-11-21T06:30:05;8.20;99.90
49218;DHT22;35045;51.194;7.268;2023-11-21T06:32:32;8.20;99.90
49218;DHT22;35045;51.194;7.268;2023-11-21T06:34:59;8.20;99.90
49218;DHT22;35045;51.194;7.268;2023-11-21T06:37:27;8.20;99.90
49218;DHT22;35045;51.194;7.268;2023-11-21T06:39:54;8.10;99.90
49218;DHT22;35045;51.194;7.268;2023-11-21T06:42:20;8.10;99.90
49218;DHT22;35045;51.194;7.268;2023-11-21T06:44:47;8.20;99.90
49218;DHT22;35045;51.194;7.268;2023-11-21T06:47:14;8.10;99.90
49218;DHT22;35045;51.194;7.268;2023-11-21T06:49:42;8.20;99.90
49218;DHT22;35045;51.194;7.268;2023-11-21T06:52:09;8.20;99.90
49218;DHT22;35045;51.194;7.268;2023-11-21T06:54:36;8.20;99.90
49218;DHT22;35045;51.194;7.268;2023-11-21T06:57:03;8.10;99.90
49218;DHT22;35045;51.194;7.268;2023-11-21T06:59:29;8.10;99.90
49218;DHT22;35045;51.194;7.268;2023-11-21T07:01:55;8.10;99.90
49218;DHT22;35045;51.194;7.268;2023-11-21T07:04:22;8.10;99.90
49218;DHT22;35045;51.194;7.268;2023-11-21T07:06:48;8.20;99.90
49218;DHT22;35045;51.194;7.268;2023-11-21T07:09:14;8.20;99.90
49218;DHT22;35045;51.194;7.268;2023-11-21T07:11:41;8.20;99.90
49218;DHT22;35045;51.194;7.268;2023-11-21T07:14:09;8.20;99.90
49218;DHT22;35045;51.194;7.268;2023-11-21T07:16:36;8.30;99.90
49218;DHT22;35045;51.194;7.268;2023-11-21T07:19:05;8.30;99.90
49218;DHT22;35045;51.194;7.268;2023-11-21T07:21:34;8.30;99.90
49218;DHT22;35045;51.194;7.268;2023-11-21T07:24:02;8.30;99.90
49218;DHT22;35045;51.194;7.268;2023-11-21T07:26:29;8.20;99.90
49218;DHT22;35045;51.194;7.268;2023-11-21T07:28:56;8.30;99.90
49218;DHT22;35045;51.194;7.268;2023-11-21T07:31:22;8.30;99.90
49218;DHT22;35045;51.194;7.268;2023-11-21T07:33:50;8.30;99.90
49218;DHT22;35045;51.194;7.268;2023-11-21T07:36:17;8.20;99.90
49218;DHT22;35045;51.194;7.268;2023-11-21T07:38:44;8.30;99.90
49218;DHT22;35045;51.194;7.268;2023-11-21T07:41:11;8.30;99.90
49218;DHT22;35045;51.194;7.268;2023-11-21T07:43:41;8.40;99.90
49218;DHT22;35045;51.194;7.268;2023-11-21T07:46:08;8.40;99.90
49218;DHT22;35045;51.194;7.268;2023-11-21T07:48:34;8.50;99.90
49218;DHT22;35045;51.194;7.268;2023-11-21T07:51:02;8.50;99.90
49218;DHT22;35045;51.194;7.268;2023-11-21T07:53:33;8.60;99.90
49218;DHT22;35045;51.194;7.268;2023-11-21T07:56:06;8.60;99.90
49218;DHT22;35045;51.194;7.268;2023-11-21T07:58:32;8.70;99.90
49218;DHT22;35045;51.194;7.268;2023-11-21T08:01:05;8.70;99.90
49218;DHT22;35045;51.194;7.268;2023-11-21T08:03:31;8.80;99.90
49218;DHT22;35045;51.194;7.268;2023-11-21T08:05:58;8.80;99.90
49218;DHT22;35045;51.194;7.268;2023-11-21T08:08:24;8.80;99.90
49218;DHT22;35045;51.194;7.268;2023-11-21T08:10:51;8.80;99.90
49218;DHT22;35045;51.194;7.268;2023-11-21T08:13:26;8.80;99.90
49218;DHT22;35045;51.194;7.268;2023-11-21T08:15:56;8.80;99.90
49218;DHT22;35045;51.194;7.268;2023-11-21T08:18:24;8.70;99.90
49218;DHT22;35045;51.194;7.268;2023-11-21T08:20:51;8.70;99.90
49218;DHT22;35045;51.194;7.268;2023-11-21T08:23:17;8.70;99.90
49218;DHT22;35045;51.194;7.268;2023-11-21T08:25:44;8.70;99.90
49218;DHT22;35045;51.194;7.268;2023-11-21T08:28:10;8.70;99.90
49218;DHT22;35045;51.194;7.268;2023-11-21T08:30:37;8.80;99.90
49218;DHT22;35045;51.194;7.268;2023-11-21T08:33:04;8.90;99.90
49218;DHT22;35045;51.194;7.268;2023-11-21T08:35:31;9.00;99.90
49218;DHT22;35045;51.194;7.268;2023-11-21T08:37:57;9.10;99.90
49218;DHT22;35045;51.194;7.268;2023-11-21T08:40:23;9.10;99.90
49218;DHT22;35045;51.194;7.268;2023-11-21T08:42:51;9.10;99.90
49218;DHT22;35045;51.194;7.268;2023-11-21T08:45:19;9.00;99.90
49218;DHT22;35045;51.194;7.268;2023-11-21T08:47:45;9.00;99.90
49218;DHT22;35045;51.194;7.268;2023-11-21T08:50:12;9.00;99.90
49218;DHT22;35045;51.194;7.268;2023-11-21T08:52:39;8.90;99.90
49218;DHT22;35045;51.194;7.268;2023-11-21T08:55:07;8.80;99.90
49218;DHT22;35045;51.194;7.268;2023-11-21T08:57:37;8.90;99.90
49218;DHT22;35045;51.194;7.268;2023-11-21T09:00:04;8.80;99.90
49218;DHT22;35045;51.194;7.268;2023-11-21T09:02:38;8.70;99.90
49218;DHT22;35045;51.194;7.268;2023-11-21T09:05:06;8.70;99.90
49218;DHT22;35045;51.194;7.268;2023-11-21T09:07:32;8.80;99.90
49218;DHT22;35045;51.194;7.268;2023-11-21T09:09:58;8.70;99.90
49218;DHT22;35045;51.194;7.268;2023-11-21T09:12:25;8.70;99.90
49218;DHT22;35045;51.194;7.268;2023-11-21T09:14:51;8.70;99.90
49218;DHT22;35045;51.194;7.268;2023-11-21T09:17:17;8.70;99.90
49218;DHT22;35045;51.194;7.268;2023-11-21T09:19:44;8.70;99.90
49218;DHT22;35045;51.194;7.268;2023-11-21T09:22:17;8.80;99.90
49218;DHT22;35045;51.194;7.268;2023-11-21T09:24:44;8.80;99.90
49218;DHT22;35045;51.194;7.268;2023-11-21T09:27:10;8.80;99.90
49218;DHT22;35045;51.194;7.268;2023-11-21T09:29:37;8.90;99.90
49218;DHT22;35045;51.194;7.268;2023-11-21T09:32:06;9.00;99.90
49218;DHT22;35045;51.194;7.268;2023-11-21T09:34:34;9.10;99.90
49218;DHT22;35045;51.194;7.268;2023-11-21T09:37:04;9.00;99.90
49218;DHT22;35045;51.194;7.268;2023-11-21T09:39:32;9.00;99.90
49218;DHT22;35045;51.194;7.268;2023-11-21T09:42:10;9.00;99.90
49218;DHT22;35045;51.194;7.268;2023-11-21T09:47:30;8.90;99.90
49218;DHT22;35045;51.194;7.268;2023-11-21T09:49:57;8.90;99.90
49218;DHT22;35045;51.194;7.268;2023-11-21T09:52:28;8.90;99.90
49218;DHT22;35045;51.194;7.268;2023-11-21T09:54:55;8.90;99.90
49218;DHT22;35045;51.194;7.268;2023-11-21T09:57:24;8.90;99.90
49218;DHT22;35045;51.194;7.268;2023-11-21T09:59:52;8.80;99.90
49218;DHT22;35045;51.194;7.268;2023-11-21T10:02:27;8.80;99.90
49218;DHT22;35045;51.194;7.268;2023-11-21T10:04:55;8.80;99.90
49218;DHT22;35045;51.194;7.268;2023-11-21T10:07:22;8.80;99.90
49218;DHT22;35045;51.194;7.268;2023-11-21T10:09:50;8.80;99.90
49218;DHT22;35045;51.194;7.268;2023-11-21T10:12:17;8.90;99.90
49218;DHT22;35045;51.194;7.268;2023-11-21T10:14:47;9.00;99.90
49218;DHT22;35045;51.194;7.268;2023-11-21T10:17:15;9.10;99.90
49218;DHT22;35045;51.194;7.268;2023-11-21T10:19:46;9.20;99.90
49218;DHT22;35045;51.194;7.268;2023-11-21T10:22:16;9.20;99.90
49218;DHT22;35045;51.194;7.268;2023-11-21T10:24:43;9.20;99.90
49218;DHT22;35045;51.194;7.268;2023-11-21T10:27:10;9.30;99.90
49218;DHT22;35045;51.194;7.268;2023-11-21T10:29:36;9.40;99.90
49218;DHT22;35045;51.194;7.268;2023-11-21T10:32:03;9.40;99.90
49218;DHT22;35045;51.194;7.268;2023-11-21T10:34:29;9.50;99.90
49218;DHT22;35045;51.194;7.268;2023-11-21T10:36:56;9.50;99.90
49218;DHT22;35045;51.194;7.268;2023-11-21T10:39:24;9.40;99.90
49218;DHT22;35045;51.194;7.268;2023-11-21T10:41:55;9.50;99.90
49218;DHT22;35045;51.194;7.268;2023-11-21T10:44:21;9.50;99.90
49218;DHT22;35045;51.194;7.268;2023-11-21T10:46:54;9.50;99.90
49218;DHT22;35045;51.194;7.268;2023-11-21T10:49:25;9.40;99.90
49218;DHT22;35045;51.194;7.268;2023-11-21T10:51:52;9.40;99.90
49218;DHT22;35045;51.194;7.268;2023-11-21T10:54:20;9.40;99.90
49218;DHT22;35045;51.194;7.268;2023-11-21T10:56:49;9.40;99.90
49218;DHT22;35045;51.194;7.268;2023-11-21T10:59:17;9.50;99.90
49218;DHT22;35045;51.194;7.268;2023-11-21T11:01:47;9.70;99.90
49218;DHT22;35045;51.194;7.268;2023-11-21T11:04:19;9.80;99.90
49218;DHT22;35045;51.194;7.268;2023-11-21T11:06:54;9.80;99.90
49218;DHT22;35045;51.194;7.268;2023-11-21T11:09:22;9.70;99.90
49218;DHT22;35045;51.194;7.268;2023-11-21T11:11:49;9.60;99.90
49218;DHT22;35045;51.194;7.268;2023-11-21T11:14:17;9.60;99.90
49218;DHT22;35045;51.194;7.268;2023-11-21T11:16:45;9.60;99.90
49218;DHT22;35045;51.194;7.268;2023-11-21T11:19:12;9.70;99.90
49218;DHT22;35045;51.194;7.268;2023-11-21T11:36:06;9.80;99.90
49218;DHT22;35045;51.194;7.268;2023-11-21T11:38:34;9.80;99.90
49218;DHT22;35045;51.194;7.268;2023-11-21T11:41:03;10.10;99.90
49218;DHT22;35045;51.194;7.268;2023-11-21T11:43:31;10.20;99.90
49218;DHT22;35045;51.194;7.268;2023-11-21T11:46:08;10.20;99.90
49218;DHT22;35045;51.194;7.268;2023-11-21T11:48:37;10.20;99.90
49218;DHT22;35045;51.194;7.268;2023-11-21T11:51:07;10.20;99.90
49218;DHT22;35045;51.194;7.268;2023-11-21T11:53:37;10.30;99.90
49218;DHT22;35045;51.194;7.268;2023-11-21T11:56:42;10.10;99.90
49218;DHT22;35045;51.194;7.268;2023-11-21T11:59:10;10.00;99.90
49218;DHT22;35045;51.194;7.268;2023-11-21T12:01:36;10.00;99.90
49218;DHT22;35045;51.194;7.268;2023-11-21T12:06:42;10.20;99.90
49218;DHT22;35045;51.194;7.268;2023-11-21T12:09:18;10.10;99.90
49218;DHT22;35045;51.194;7.268;2023-11-21T12:11:46;10.10;99.90
49218;DHT22;35045;51.194;7.268;2023-11-21T12:14:13;10.10;99.90
49218;DHT22;35045;51.194;7.268;2023-11-21T12:16:40;10.20;99.90
49218;DHT22;35045;51.194;7.268;2023-11-21T12:19:06;10.20;99.90
49218;DHT22;35045;51.194;7.268;2023-11-21T12:21:33;10.20;99.90
49218;DHT22;35045;51.194;7.268;2023-11-21T12:24:00;10.30;99.90
49218;DHT22;35045;51.194;7.268;2023-11-21T12:26:26;10.60;99.90
49218;DHT22;35045;51.194;7.268;2023-11-21T12:28:53;10.70;99.90
49218;DHT22;35045;51.194;7.268;2023-11-21T12:31:23;10.60;99.90
49218;DHT22;35045;51.194;7.268;2023-11-21T12:33:50;10.60;99.90
49218;DHT22;35045;51.194;7.268;2023-11-21T12:36:16;10.50;99.90
49218;DHT22;35045;51.194;7.268;2023-11-21T12:38:43;10.50;99.90
49218;DHT22;35045;51.194;7.268;2023-11-21T12:41:09;10.40;99.90
49218;DHT22;35045;51.194;7.268;2023-11-21T12:43:36;10.30;99.90
49218;DHT22;35045;51.194;7.268;2023-11-21T12:46:05;10.10;99.90
49218;DHT22;35045;51.194;7.268;2023-11-21T12:48:32;10.00;99.90
49218;DHT22;35045;51.194;7.268;2023-11-21T12:50:58;9.90;99.90
49218;DHT22;35045;51.194;7.268;2023-11-21T12:53:26;9.90;99.90
49218;DHT22;35045;51.194;7.268;2023-11-21T12:55:55;9.90;99.90
49218;DHT22;35045;51.194;7.268;2023-11-21T12:58:24;9.90;99.90
49218;DHT22;35045;51.194;7.268;2023-11-21T13:00:51;9.90;99.90
49218;DHT22;35045;51.194;7.268;2023-11-21T13:03:20;9.80;99.90
49218;DHT22;35045;51.194;7.268;2023-11-21T13:05:51;9.90;99.90
49218;DHT22;35045;51.194;7.268;2023-11-21T13:08:22;9.90;99.90
49218;DHT22;35045;51.194;7.268;2023-11-21T13:10:51;9.80;99.90
49218;DHT22;35045;51.194;7.268;2023-11-21T13:13:18;9.80;99.90
49218;DHT22;35045;51.194;7.268;2023-11-21T13:15:55;9.80;99.90
49218;DHT22;35045;51.194;7.268;2023-11-21T13:18:28;9.80;99.90
49218;DHT22;35045;51.194;7.268;2023-11-21T13:20:55;9.70;99.90
49218;DHT22;35045;51.194;7.268;2023-11-21T13:23:22;9.70;99.90
49218;DHT22;35045;51.194;7.268;2023-11-21T13:25:48;9.70;99.90
49218;DHT22;35045;51.194;7.268;2023-11-21T13:28:18;9.70;99.90
49218;DHT22;35045;51.194;7.268;2023-11-21T13:30:48;9.60;99.90
49218;DHT22;35045;51.194;7.268;2023-11-21T13:33:14;9.80;99.90
49218;DHT22;35045;51.194;7.268;2023-11-21T13:35:48;9.80;99.90
49218;DHT22;35045;51.194;7.268;2023-11-21T13:38:17;9.80;99.90
49218;DHT22;35045;51.194;7.268;2023-11-21T13:40:52;9.70;99.90
49218;DHT22;35045;51.194;7.268;2023-11-21T13:43:25;9.70;99.90
49218;DHT22;35045;51.194;7.268;2023-11-21T13:45:53;9.60;99.90
49218;DHT22;35045;51.194;7.268;2023-11-21T13:48:36;9.60;99.90
49218;DHT22;35045;51.194;7.268;2023-11-21T13:51:14;9.50;99.90
49218;DHT22;35045;51.194;7.268;2023-11-21T13:53:44;9.50;99.90
49218;DHT22;35045;51.194;7.268;2023-11-21T13:56:14;9.40;99.90
49218;DHT22;35045;51.194;7.268;2023-11-21T13:58:45;9.30;99.90
49218;DHT22;35045;51.194;7.268;2023-11-21T14:01:22;9.30;99.90
49218;DHT22;35045;51.194;7.268;2023-11-21T14:04:01;9.40;99.90
49218;DHT22;35045;51.194;7.268;2023-11-21T14:06:38;9.30;99.90
49218;DHT22;35045;51.194;7.268;2023-11-21T14:09:21;9.20;99.90
49218;DHT22;35045;51.194;7.268;2023-11-21T14:12:01;9.10;99.90
49218;DHT22;35045;51.194;7.268;2023-11-21T14:14:32;9.00;99.90
49218;DHT22;35045;51.194;7.268;2023-11-21T14:16:58;9.00;99.90
49218;DHT22;35045;51.194;7.268;2023-11-21T14:19:25;8.90;99.90
49218;DHT22;35045;51.194;7.268;2023-11-21T14:21:57;8.90;99.90
49218;DHT22;35045;51.194;7.268;2023-11-21T14:24:24;8.90;99.90
49218;DHT22;35045;51.194;7.268;2023-11-21T14:26:51;8.80;99.90
49218;DHT22;35045;51.194;7.268;2023-11-21T14:29:18;8.70;99.90
49218;DHT22;35045;51.194;7.268;2023-11-21T14:31:49;8.70;99.90
49218;DHT22;35045;51.194;7.268;2023-11-21T14:34:23;8.60;99.90
49218;DHT22;35045;51.194;7.268;2023-11-21T14:36:50;8.50;99.90
49218;DHT22;35045;51.194;7.268;2023-11-21T14:39:16;8.50;99.90
49218;DHT22;35045;51.194;7.268;2023-11-21T14:41:56;8.60;99.90
49218;DHT22;35045;51.194;7.268;2023-11-21T14:44:24;8.60;99.90
49218;DHT22;35045;51.194;7.268;2023-11-21T14:46:52;8.50;99.90
49218;DHT22;35045;51.194;7.268;2023-11-21T14:49:21;8.50;99.90
49218;DHT22;35045;51.194;7.268;2023-11-21T14:51:54;8.50;99.90
49218;DHT22;35045;51.194;7.268;2023-11-21T14:54:28;8.40;99.90
49218;DHT22;35045;51.194;7.268;2023-11-21T14:57:15;8.40;99.90
49218;DHT22;35045;51.194;7.268;2023-11-21T14:59:46;8.40;99.90
49218;DHT22;35045;51.194;7.268;2023-11-21T15:02:14;8.40;99.90
49218;DHT22;35045;51.194;7.268;2023-11-21T15:04:42;8.40;99.90
49218;DHT22;35045;51.194;7.268;2023-11-21T15:07:09;8.50;99.90
49218;DHT22;35045;51.194;7.268;2023-11-21T15:09:37;8.50;99.90
49218;DHT22;35045;51.194;7.268;2023-11-21T15:12:12;8.50;99.90
49218;DHT22;35045;51.194;7.268;2023-11-21T15:14:46;8.50;99.90
49218;DHT22;35045;51.194;7.268;2023-11-21T15:17:15;8.50;99.90
49218;DHT22;35045;51.194;7.268;2023-11-21T15:19:53;8.50;99.90
49218;DHT22;35045;51.194;7.268;2023-11-21T15:22:20;8.50;99.90
49218;DHT22;35045;51.194;7.268;2023-11-21T15:24:46;8.50;99.90
49218;DHT22;35045;51.194;7.268;2023-11-21T15:27:14;8.40;99.90
49218;DHT22;35045;51.194;7.268;2023-11-21T15:29:42;8.30;99.90
49218;DHT22;35045;51.194;7.268;2023-11-21T15:32:09;8.30;99.90
49218;DHT22;35045;51.194;7.268;2023-11-21T15:34:37;8.30;99.90
49218;DHT22;35045;51.194;7.268;2023-11-21T15:37:05;8.40;99.90
49218;DHT22;35045;51.194;7.268;2023-11-21T15:39:35;8.30;99.90
49218;DHT22;35045;51.194;7.268;2023-11-21T15:42:01;8.30;99.90
49218;DHT22;35045;51.194;7.268;2023-11-21T15:44:30;8.30;99.90
49218;DHT22;35045;51.194;7.268;2023-11-21T15:46:59;8.30;99.90
49218;DHT22;35045;51.194;7.268;2023-11-21T15:49:26;8.30;99.90
49218;DHT22;35045;51.194;7.268;2023-11-21T15:51:53;8.30;99.90
49218;DHT22;35045;51.194;7.268;2023-11-21T15:54:22;8.40;99.90
49218;DHT22;35045;51.194;7.268;2023-11-21T15:56:49;8.40;99.90
49218;DHT22;35045;51.194;7.268;2023-11-21T15:59:15;8.40;99.90
49218;DHT22;35045;51.194;7.268;2023-11-21T16:01:42;8.40;99.90
49218;DHT22;35045;51.194;7.268;2023-11-21T16:04:14;8.40;99.90
49218;DHT22;35045;51.194;7.268;2023-11-21T16:06:43;8.30;99.90
49218;DHT22;35045;51.194;7.268;2023-11-21T16:09:10;8.30;99.90
49218;DHT22;35045;51.194;7.268;2023-11-21T16:11:47;8.30;99.90